createdAt,value
2023-05-02T00:00:43.416Z,14.39
2023-05-02T00:01:46.868Z,14.46
2023-05-02T00:02:50.318Z,14.48
2023-05-02T00:03:53.814Z,14.52
2023-05-02T00:04:57.041Z,14.50
2023-05-02T00:06:03.072Z,14.52
2023-05-02T00:07:06.204Z,14.57
2023-05-02T00:08:09.228Z,14.55
2023-05-02T00:09:12.723Z,14.55
2023-05-02T00:10:15.711Z,14.64
2023-05-02T00:11:18.760Z,14.72
2023-05-02T00:12:21.941Z,14.76
2023-05-02T00:13:25.277Z,14.65
2023-05-02T00:14:28.102Z,14.64
2023-05-02T00:15:31.108Z,14.56
2023-05-02T00:16:34.007Z,14.55
2023-05-02T00:17:37.470Z,14.61
2023-05-02T00:18:40.740Z,14.63
2023-05-02T00:19:43.924Z,14.64
2023-05-02T00:20:46.943Z,14.63
2023-05-02T00:21:50.393Z,14.66
2023-05-02T00:22:53.491Z,14.73
2023-05-02T00:24:00.433Z,14.72
2023-05-02T00:25:03.914Z,14.64
2023-05-02T00:26:10.294Z,14.61
2023-05-02T00:27:13.174Z,14.78
2023-05-02T00:28:16.047Z,14.87
2023-05-02T00:29:18.955Z,14.80
2023-05-02T00:30:22.004Z,14.79
2023-05-02T00:31:25.048Z,14.83
2023-05-02T00:32:28.414Z,14.75
2023-05-02T00:33:31.319Z,14.66
2023-05-02T00:34:34.275Z,14.61
2023-05-02T00:35:37.109Z,14.67
2023-05-02T00:36:40.074Z,14.69
2023-05-02T00:37:43.015Z,14.68
2023-05-02T00:38:46.096Z,14.69
2023-05-02T00:39:48.979Z,14.70
2023-05-02T00:40:53.673Z,14.63
2023-05-02T00:42:00.151Z,14.63
2023-05-02T00:43:03.212Z,14.73
2023-05-02T00:44:06.104Z,14.74
2023-05-02T00:45:09.266Z,14.77
2023-05-02T00:46:13.404Z,14.74
2023-05-02T00:47:16.588Z,14.64
2023-05-02T00:48:21.943Z,14.63
2023-05-02T00:49:25.280Z,14.62
2023-05-02T00:50:31.362Z,14.59
2023-05-02T00:51:34.728Z,14.57
2023-05-02T00:52:38.276Z,14.65
2023-05-02T00:53:42.090Z,14.66
2023-05-02T00:54:44.967Z,14.68
2023-05-02T00:55:50.110Z,14.57
2023-05-02T00:56:53.192Z,14.56
2023-05-02T00:57:56.433Z,14.56
2023-05-02T00:59:01.920Z,14.54
2023-05-02T01:00:06.954Z,14.62
2023-05-02T01:01:41.267Z,14.49
2023-05-02T01:02:56.482Z,14.44
2023-05-02T01:04:25.218Z,14.40
2023-05-02T01:06:01.913Z,14.41
2023-05-02T01:07:14.736Z,14.45
2023-05-02T01:08:35.872Z,14.50
2023-05-02T01:10:00.912Z,14.53
2023-05-02T01:11:15.329Z,14.43
2023-05-02T01:12:42.196Z,14.39
2023-05-02T01:13:47.197Z,14.40
2023-05-02T01:14:58.000Z,14.44
2023-05-02T01:16:03.499Z,14.46
2023-05-02T01:17:10.473Z,14.41
2023-05-02T01:18:19.135Z,14.42
2023-05-02T01:19:51.499Z,14.43
2023-05-02T01:21:11.351Z,14.36
2023-05-02T01:22:16.699Z,14.52
2023-05-02T01:23:58.338Z,14.48
2023-05-02T01:25:01.501Z,14.40
2023-05-02T01:26:20.905Z,14.32
2023-05-02T01:27:48.650Z,14.44
2023-05-02T01:29:01.808Z,14.43
2023-05-02T01:30:06.874Z,14.41
2023-05-02T01:31:11.454Z,14.42
2023-05-02T01:32:16.721Z,14.39
2023-05-02T01:33:21.766Z,14.38
2023-05-02T01:34:28.266Z,14.41
2023-05-02T01:35:34.306Z,14.39
2023-05-02T01:36:43.601Z,14.37
2023-05-02T01:37:48.660Z,14.27
2023-05-02T01:38:52.451Z,14.22
2023-05-02T01:39:57.661Z,14.26
2023-05-02T01:41:07.532Z,14.31
2023-05-02T01:42:13.111Z,14.31
2023-05-02T01:43:18.246Z,14.38
2023-05-02T01:44:23.783Z,14.51
2023-05-02T01:45:28.732Z,14.53
2023-05-02T01:46:35.292Z,14.50
2023-05-02T01:47:40.953Z,14.57
2023-05-02T01:48:49.641Z,14.55
2023-05-02T01:49:53.241Z,14.57
2023-05-02T01:50:58.973Z,14.52
2023-05-02T01:52:11.052Z,14.53
2023-05-02T01:53:15.599Z,14.45
2023-05-02T01:54:21.156Z,14.47
2023-05-02T01:55:25.734Z,14.48
2023-05-02T01:56:32.569Z,14.50
2023-05-02T01:57:39.652Z,14.50
2023-05-02T01:58:43.962Z,14.50
2023-05-02T01:59:49.063Z,14.50
2023-05-02T02:00:53.616Z,14.50
2023-05-02T02:01:57.771Z,14.45
2023-05-02T02:03:01.923Z,14.43
2023-05-02T02:04:07.002Z,14.50
2023-05-02T02:05:11.286Z,14.64
2023-05-02T02:06:16.381Z,14.53
2023-05-02T02:07:19.285Z,14.49
2023-05-02T02:08:22.689Z,14.46
2023-05-02T02:09:26.073Z,14.44
2023-05-02T02:10:36.299Z,14.43
2023-05-02T02:11:54.042Z,14.43
2023-05-02T02:13:05.000Z,14.44
2023-05-02T02:14:17.563Z,14.40
2023-05-02T02:15:28.373Z,14.34
2023-05-02T02:16:37.303Z,14.33
2023-05-02T02:17:44.295Z,14.29
2023-05-02T02:18:48.038Z,14.25
2023-05-02T02:19:54.455Z,14.27
2023-05-02T02:20:59.725Z,14.39
2023-05-02T02:22:05.830Z,14.30
2023-05-02T02:23:09.827Z,14.28
2023-05-02T02:24:13.834Z,14.29
2023-05-02T02:25:17.948Z,14.28
2023-05-02T02:26:22.069Z,14.24
2023-05-02T02:27:25.449Z,14.18
2023-05-02T02:28:28.629Z,14.43
2023-05-02T02:29:31.759Z,14.44
2023-05-02T02:30:34.962Z,14.37
2023-05-02T02:31:40.049Z,14.47
2023-05-02T02:32:43.121Z,14.42
2023-05-02T02:33:46.238Z,14.46
2023-05-02T02:34:49.220Z,14.50
2023-05-02T02:36:03.886Z,14.52
2023-05-02T02:37:19.576Z,14.55
2023-05-02T02:38:42.285Z,14.48
2023-05-02T02:40:06.205Z,14.45
2023-05-02T02:41:19.720Z,14.43
2023-05-02T02:42:25.467Z,14.48
2023-05-02T02:43:41.223Z,14.46
2023-05-02T02:45:06.782Z,14.51
2023-05-02T02:46:27.806Z,14.56
2023-05-02T02:47:43.323Z,14.50
2023-05-02T02:49:23.808Z,14.56
2023-05-02T02:50:33.247Z,14.62
2023-05-02T02:51:54.412Z,14.52
2023-05-02T02:53:17.521Z,14.53
2023-05-02T02:54:44.506Z,14.56
2023-05-02T02:56:48.888Z,14.58
2023-05-02T02:58:21.001Z,14.50
2023-05-02T02:59:32.238Z,14.51
2023-05-02T03:00:35.975Z,14.64
2023-05-02T03:01:42.754Z,14.64
2023-05-02T03:02:47.840Z,14.67
2023-05-02T03:03:52.283Z,14.56
2023-05-02T03:04:56.463Z,14.69
2023-05-02T03:06:00.226Z,14.66
2023-05-02T03:07:03.839Z,14.65
2023-05-02T03:08:14.148Z,14.70
2023-05-02T03:09:20.175Z,14.74
2023-05-02T03:10:23.992Z,14.78
2023-05-02T03:11:28.327Z,14.75
2023-05-02T03:12:32.481Z,14.75
2023-05-02T03:13:36.321Z,14.84
2023-05-02T03:14:39.945Z,14.75
2023-05-02T03:15:51.821Z,14.64
2023-05-02T03:16:56.804Z,14.58
2023-05-02T03:17:59.937Z,14.65
2023-05-02T03:19:04.060Z,14.55
2023-05-02T03:20:07.915Z,14.50
2023-05-02T03:21:11.576Z,14.52
2023-05-02T03:22:14.717Z,14.48
2023-05-02T03:23:17.666Z,14.50
2023-05-02T03:24:20.531Z,14.55
2023-05-02T03:25:23.494Z,14.49
2023-05-02T03:26:26.580Z,14.43
2023-05-02T03:27:29.473Z,14.40
2023-05-02T03:28:33.509Z,14.47
2023-05-02T03:29:36.815Z,14.49
2023-05-02T03:30:40.973Z,14.38
2023-05-02T03:31:43.947Z,14.48
2023-05-02T03:32:46.992Z,14.44
2023-05-02T03:33:50.095Z,14.45
2023-05-02T03:34:52.996Z,14.53
2023-05-02T03:35:55.830Z,14.57
2023-05-02T03:36:58.993Z,14.53
2023-05-02T03:38:02.114Z,14.45
2023-05-02T03:39:05.118Z,14.53
2023-05-02T03:40:08.732Z,14.43
2023-05-02T03:41:11.692Z,14.53
2023-05-02T03:42:14.711Z,14.45
2023-05-02T03:43:17.521Z,14.43
2023-05-02T03:44:20.716Z,14.41
2023-05-02T03:45:23.550Z,14.41
2023-05-02T03:46:26.621Z,14.40
2023-05-02T03:47:29.701Z,14.32
2023-05-02T03:48:33.668Z,14.22
2023-05-02T03:49:37.063Z,14.45
2023-05-02T03:50:40.010Z,14.42
2023-05-02T03:51:43.048Z,14.42
2023-05-02T03:52:46.060Z,14.48
2023-05-02T03:53:48.839Z,14.48
2023-05-02T03:54:52.190Z,14.54
2023-05-02T03:55:55.101Z,14.45
2023-05-02T03:56:58.428Z,14.40
2023-05-02T03:58:01.365Z,14.51
2023-05-02T03:59:04.629Z,14.50
2023-05-02T04:00:08.316Z,14.60
2023-05-02T04:01:15.886Z,14.59
2023-05-02T04:02:18.936Z,14.50
2023-05-02T04:03:22.956Z,14.46
2023-05-02T04:04:26.011Z,14.38
2023-05-02T04:05:29.151Z,14.38
2023-05-02T04:06:32.811Z,14.39
2023-05-02T04:07:35.877Z,14.44
2023-05-02T04:08:39.801Z,14.44
2023-05-02T04:09:42.699Z,14.47
2023-05-02T04:10:45.811Z,14.47
2023-05-02T04:11:49.537Z,14.44
2023-05-02T04:12:52.353Z,14.42
2023-05-02T04:13:55.220Z,14.38
2023-05-02T04:14:58.182Z,14.46
2023-05-02T04:16:01.027Z,14.38
2023-05-02T04:17:04.428Z,14.35
2023-05-02T04:18:07.986Z,14.36
2023-05-02T04:19:11.178Z,14.37
2023-05-02T04:20:15.783Z,14.42
2023-05-02T04:21:18.825Z,14.35
2023-05-02T04:22:21.677Z,14.38
2023-05-02T04:23:24.703Z,14.46
2023-05-02T04:24:27.989Z,14.44
2023-05-02T04:25:31.107Z,14.41
2023-05-02T04:26:34.184Z,14.36
2023-05-02T04:27:38.743Z,14.36
2023-05-02T04:28:41.870Z,14.32
2023-05-02T04:29:48.122Z,14.36
2023-05-02T04:30:52.807Z,14.46
2023-05-02T04:31:55.775Z,14.50
2023-05-02T04:32:58.861Z,14.49
2023-05-02T04:34:01.867Z,14.48
2023-05-02T04:35:05.158Z,14.50
2023-05-02T04:36:10.200Z,14.57
2023-05-02T04:37:13.047Z,14.69
2023-05-02T04:38:15.977Z,14.72
2023-05-02T04:39:19.086Z,14.70
2023-05-02T04:40:21.855Z,14.79
2023-05-02T04:41:25.429Z,14.85
2023-05-02T04:42:28.581Z,14.91
2023-05-02T04:43:31.455Z,14.86
2023-05-02T04:44:34.489Z,14.83
2023-05-02T04:45:37.641Z,14.85
2023-05-02T04:46:40.652Z,14.78
2023-05-02T04:47:44.005Z,14.70
2023-05-02T04:48:47.304Z,14.74
2023-05-02T04:49:50.198Z,14.76
2023-05-02T04:50:56.486Z,14.83
2023-05-02T04:51:59.441Z,14.86
2023-05-02T04:53:02.808Z,14.78
2023-05-02T04:54:05.679Z,14.82
2023-05-02T04:55:09.053Z,14.87
2023-05-02T04:56:12.293Z,14.86
2023-05-02T04:57:15.190Z,14.93
2023-05-02T04:58:18.347Z,14.98
2023-05-02T04:59:21.347Z,14.85
2023-05-02T05:00:24.207Z,14.86
2023-05-02T05:01:30.433Z,14.93
2023-05-02T05:02:33.371Z,14.92
2023-05-02T05:03:36.890Z,14.86
2023-05-02T05:04:39.827Z,14.85
2023-05-02T05:05:42.739Z,14.91
2023-05-02T05:06:48.761Z,14.98
2023-05-02T05:07:52.780Z,14.98
2023-05-02T05:08:55.664Z,15.02
2023-05-02T05:09:58.812Z,15.04
2023-05-02T05:11:02.209Z,15.10
2023-05-02T05:12:05.336Z,15.10
2023-05-02T05:13:08.288Z,15.09
2023-05-02T05:14:12.147Z,15.05
2023-05-02T05:15:15.510Z,15.03
2023-05-02T05:16:19.223Z,15.05
2023-05-02T05:17:23.150Z,15.13
2023-05-02T05:18:26.202Z,15.14
2023-05-02T05:19:29.529Z,15.19
2023-05-02T05:20:32.340Z,15.25
2023-05-02T05:21:35.315Z,15.20
2023-05-02T05:22:41.795Z,15.27
2023-05-02T05:23:46.389Z,15.25
2023-05-02T05:24:55.967Z,15.20
2023-05-02T05:25:59.450Z,15.19
2023-05-02T05:27:03.176Z,15.20
2023-05-02T05:28:06.207Z,15.24
2023-05-02T05:29:09.211Z,15.32
2023-05-02T05:30:12.664Z,15.24
2023-05-02T05:31:18.686Z,15.27
2023-05-02T05:32:22.367Z,15.20
2023-05-02T05:33:25.394Z,15.28
2023-05-02T05:34:28.319Z,15.21
2023-05-02T05:35:32.317Z,15.21
2023-05-02T05:36:35.523Z,15.28
2023-05-02T05:37:39.738Z,15.24
2023-05-02T05:38:42.970Z,15.27
2023-05-02T05:39:46.005Z,15.27
2023-05-02T05:40:51.474Z,15.39
2023-05-02T05:41:54.947Z,15.37
2023-05-02T05:42:57.735Z,15.42
2023-05-02T05:44:00.602Z,15.39
2023-05-02T05:45:03.564Z,15.36
2023-05-02T05:46:06.936Z,15.40
2023-05-02T05:47:10.090Z,15.48
2023-05-02T05:48:13.076Z,15.36
2023-05-02T05:49:17.090Z,15.37
2023-05-02T05:50:19.864Z,15.46
2023-05-02T05:51:22.729Z,15.40
2023-05-02T05:52:25.990Z,15.35
2023-05-02T05:53:28.882Z,15.42
2023-05-02T05:54:31.673Z,15.53
2023-05-02T05:55:35.967Z,15.54
2023-05-02T05:56:40.256Z,15.55
2023-05-02T05:57:43.110Z,15.51
2023-05-02T05:58:46.054Z,15.52
2023-05-02T05:59:49.265Z,15.54
2023-05-02T06:00:52.648Z,15.45
2023-05-02T06:01:55.567Z,15.48
2023-05-02T06:02:58.529Z,15.51
2023-05-02T06:04:01.749Z,15.52
2023-05-02T06:05:04.818Z,15.57
2023-05-02T06:06:07.957Z,15.49
2023-05-02T06:07:11.142Z,15.56
2023-05-02T06:08:14.017Z,15.48
2023-05-02T06:09:16.941Z,15.59
2023-05-02T06:10:21.021Z,15.56
2023-05-02T06:11:24.803Z,15.62
2023-05-02T06:12:27.846Z,15.65
2023-05-02T06:13:30.964Z,15.62
2023-05-02T06:14:33.964Z,15.57
2023-05-02T06:15:36.797Z,15.61
2023-05-02T06:16:40.040Z,15.68
2023-05-02T06:17:43.259Z,15.63
2023-05-02T06:18:47.096Z,15.62
2023-05-02T06:19:50.326Z,15.58
2023-05-02T06:20:53.295Z,15.55
2023-05-02T06:21:56.588Z,15.67
2023-05-02T06:22:59.552Z,15.80
2023-05-02T06:24:02.540Z,15.80
2023-05-02T06:25:06.319Z,15.85
2023-05-02T06:26:10.389Z,15.96
2023-05-02T06:27:13.327Z,15.97
2023-05-02T06:28:16.438Z,15.98
2023-05-02T06:29:19.646Z,16.04
2023-05-02T06:30:22.713Z,16.05
2023-05-02T06:31:25.751Z,16.12
2023-05-02T06:32:35.109Z,16.16
2023-05-02T06:33:38.082Z,16.18
2023-05-02T06:34:40.987Z,16.13
2023-05-02T06:35:43.871Z,16.13
2023-05-02T06:36:47.134Z,16.10
2023-05-02T06:37:49.918Z,16.16
2023-05-02T06:38:52.905Z,16.31
2023-05-02T06:39:55.885Z,16.37
2023-05-02T06:40:58.880Z,16.36
2023-05-02T06:42:02.307Z,16.39
2023-05-02T06:43:05.659Z,16.32
2023-05-02T06:44:08.467Z,16.32
2023-05-02T06:45:11.666Z,16.33
2023-05-02T06:46:14.714Z,16.39
2023-05-02T06:47:17.871Z,16.48
2023-05-02T06:48:21.889Z,16.65
2023-05-02T06:49:25.007Z,16.79
2023-05-02T06:50:28.653Z,16.78
2023-05-02T06:51:32.444Z,16.74
2023-05-02T06:52:35.599Z,16.73
2023-05-02T06:53:38.847Z,16.67
2023-05-02T06:54:42.594Z,16.66
2023-05-02T06:55:47.142Z,16.70
2023-05-02T06:56:50.107Z,16.78
2023-05-02T06:57:54.252Z,16.76
2023-05-02T06:58:57.366Z,16.70
2023-05-02T07:00:00.437Z,16.74
2023-05-02T07:01:03.747Z,16.78
2023-05-02T07:02:07.079Z,16.84
2023-05-02T07:03:11.531Z,16.83
2023-05-02T07:04:14.592Z,16.84
2023-05-02T07:05:17.516Z,16.96
2023-05-02T07:06:20.953Z,16.98
2023-05-02T07:07:24.084Z,17.05
2023-05-02T07:08:27.309Z,17.18
2023-05-02T07:09:30.306Z,17.24
2023-05-02T07:10:33.362Z,17.29
2023-05-02T07:11:36.437Z,17.53
2023-05-02T07:12:39.726Z,17.69
2023-05-02T07:13:43.630Z,17.79
2023-05-02T07:14:47.370Z,17.87
2023-05-02T07:15:50.484Z,17.96
2023-05-02T07:16:54.108Z,17.89
2023-05-02T07:17:57.110Z,17.85
2023-05-02T07:19:00.449Z,17.96
2023-05-02T07:20:04.006Z,18.04
2023-05-02T07:21:07.626Z,17.98
2023-05-02T07:22:10.765Z,17.93
2023-05-02T07:23:13.583Z,18.05
2023-05-02T07:24:16.648Z,17.98
2023-05-02T07:25:19.587Z,17.97
2023-05-02T07:26:23.691Z,18.03
2023-05-02T07:27:26.608Z,18.00
2023-05-02T07:28:29.477Z,18.04
2023-05-02T07:29:32.371Z,18.13
2023-05-02T07:30:35.514Z,18.29
2023-05-02T07:31:38.752Z,18.41
2023-05-02T07:32:41.792Z,18.53
2023-05-02T07:33:44.680Z,18.59
2023-05-02T07:34:48.470Z,18.72
2023-05-02T07:35:51.822Z,18.66
2023-05-02T07:36:54.735Z,18.63
2023-05-02T07:37:57.749Z,18.59
2023-05-02T07:39:00.629Z,18.57
2023-05-02T07:40:04.705Z,18.53
2023-05-02T07:41:08.163Z,18.60
2023-05-02T07:42:11.352Z,18.67
2023-05-02T07:43:16.348Z,18.69
2023-05-02T07:44:19.355Z,18.80
2023-05-02T07:45:22.388Z,18.76
2023-05-02T07:46:25.593Z,18.82
2023-05-02T07:47:29.624Z,18.77
2023-05-02T07:48:32.777Z,18.75
2023-05-02T07:49:37.107Z,18.81
2023-05-02T07:50:40.152Z,18.91
2023-05-02T07:51:44.433Z,19.04
2023-05-02T07:52:47.410Z,19.17
2023-05-02T07:53:58.797Z,19.22
2023-05-02T07:55:01.672Z,19.17
2023-05-02T07:56:07.273Z,19.22
2023-05-02T07:57:10.149Z,19.26
2023-05-02T07:58:13.081Z,19.36
2023-05-02T07:59:16.118Z,19.40
2023-05-02T08:00:19.433Z,19.36
2023-05-02T08:01:22.319Z,19.39
2023-05-02T08:02:26.421Z,19.38
2023-05-02T08:03:29.780Z,19.45
2023-05-02T08:04:33.026Z,19.56
2023-05-02T08:05:35.813Z,19.67
2023-05-02T08:06:38.849Z,19.63
2023-05-02T08:07:41.913Z,19.78
2023-05-02T08:08:44.992Z,19.77
2023-05-02T08:09:47.888Z,19.71
2023-05-02T08:10:51.647Z,19.73
2023-05-02T08:11:54.529Z,19.95
2023-05-02T08:12:57.567Z,19.88
2023-05-02T08:14:00.346Z,19.93
2023-05-02T08:15:06.685Z,19.91
2023-05-02T08:16:09.780Z,19.95
2023-05-02T08:17:12.852Z,19.96
2023-05-02T08:18:16.204Z,19.95
2023-05-02T08:19:19.308Z,19.95
2023-05-02T08:20:23.316Z,19.95
2023-05-02T08:21:28.104Z,19.97
2023-05-02T08:22:31.080Z,20.09
2023-05-02T08:23:34.968Z,20.26
2023-05-02T08:24:37.892Z,20.29
2023-05-02T08:25:40.794Z,20.25
2023-05-02T08:26:43.624Z,20.33
2023-05-02T08:27:46.914Z,20.45
2023-05-02T08:28:51.896Z,20.52
2023-05-02T08:29:55.116Z,20.56
2023-05-02T08:30:58.124Z,20.53
2023-05-02T08:32:01.317Z,20.48
2023-05-02T08:33:04.370Z,20.59
2023-05-02T08:34:07.568Z,20.69
2023-05-02T08:35:10.534Z,20.63
2023-05-02T08:36:18.064Z,20.60
2023-05-02T08:37:21.035Z,20.74
2023-05-02T08:38:24.159Z,20.72
2023-05-02T08:39:27.122Z,20.72
2023-05-02T08:40:41.995Z,20.69
2023-05-02T08:41:46.099Z,20.58
2023-05-02T08:42:49.304Z,20.71
2023-05-02T08:43:53.025Z,20.68
2023-05-02T08:44:55.986Z,20.69
2023-05-02T08:46:02.420Z,20.71
2023-05-02T08:47:07.026Z,20.77
2023-05-02T08:48:12.413Z,20.86
2023-05-02T08:49:17.099Z,20.96
2023-05-02T08:50:21.663Z,21.02
2023-05-02T08:51:25.184Z,21.22
2023-05-02T08:52:29.408Z,21.14
2023-05-02T08:53:35.344Z,21.08
2023-05-02T08:54:38.975Z,21.03
2023-05-02T08:55:43.131Z,21.11
2023-05-02T08:56:48.217Z,21.17
2023-05-02T08:57:51.081Z,21.32
2023-05-02T08:58:54.612Z,21.32
2023-05-02T08:59:57.999Z,21.27
2023-05-02T09:01:04.748Z,21.24
2023-05-02T09:02:24.396Z,21.30
2023-05-02T09:03:35.796Z,21.40
2023-05-02T09:04:42.738Z,21.67
2023-05-02T09:05:55.514Z,21.68
2023-05-02T09:06:58.516Z,21.60
2023-05-02T09:08:01.837Z,21.67
2023-05-02T09:09:04.611Z,21.81
2023-05-02T09:10:08.784Z,21.91
2023-05-02T09:11:13.652Z,21.91
2023-05-02T09:12:16.673Z,21.82
2023-05-02T09:13:46.999Z,21.98
2023-05-02T09:15:19.024Z,22.01
2023-05-02T09:16:26.035Z,22.05
2023-05-02T09:17:43.393Z,22.07
2023-05-02T09:18:49.292Z,22.19
2023-05-02T09:20:01.527Z,22.21
2023-05-02T09:21:33.127Z,22.31
2023-05-02T09:22:36.980Z,22.34
2023-05-02T09:23:44.580Z,22.35
2023-05-02T09:24:54.981Z,22.30
2023-05-02T09:25:57.817Z,22.35
2023-05-02T09:27:06.176Z,22.30
2023-05-02T09:28:09.053Z,22.36
2023-05-02T09:29:20.094Z,22.52
2023-05-02T09:30:26.851Z,22.57
2023-05-02T09:32:47.436Z,22.65
2023-05-02T09:33:50.621Z,22.69
2023-05-02T09:35:06.914Z,22.77
2023-05-02T09:36:14.765Z,22.88
2023-05-02T09:37:38.008Z,22.94
2023-05-02T09:38:42.342Z,22.92
2023-05-02T09:40:06.630Z,22.82
2023-05-02T09:41:10.905Z,22.82
2023-05-02T09:42:13.974Z,22.99
2023-05-02T09:43:17.481Z,23.13
2023-05-02T09:44:22.316Z,23.22
2023-05-02T09:45:26.803Z,23.22
2023-05-02T09:46:47.367Z,23.22
2023-05-02T09:47:51.122Z,23.24
2023-05-02T09:48:58.534Z,23.07
2023-05-02T09:50:01.347Z,23.11
2023-05-02T09:51:05.072Z,23.19
2023-05-02T09:52:17.835Z,23.19
2023-05-02T09:53:21.220Z,23.21
2023-05-02T09:54:37.225Z,23.30
2023-05-02T09:55:40.241Z,23.35
2023-05-02T09:56:57.066Z,23.36
2023-05-02T09:58:01.288Z,23.39
2023-05-02T09:59:15.547Z,23.38
2023-05-02T10:00:19.859Z,23.43
2023-05-02T10:01:23.123Z,23.45
2023-05-02T10:02:26.439Z,23.45
2023-05-02T10:03:29.989Z,23.53
2023-05-02T10:04:35.002Z,23.51
2023-05-02T10:05:40.021Z,23.58
2023-05-02T10:06:46.516Z,23.63
2023-05-02T10:07:49.658Z,23.70
2023-05-02T10:08:52.851Z,23.68
2023-05-02T10:09:59.084Z,23.63
2023-05-02T10:11:05.652Z,23.57
2023-05-02T10:12:08.778Z,23.58
2023-05-02T10:13:13.965Z,23.67
2023-05-02T10:14:19.964Z,23.74
2023-05-02T10:15:26.437Z,23.74
2023-05-02T10:16:31.321Z,23.76
2023-05-02T10:17:45.018Z,23.66
2023-05-02T10:19:03.537Z,23.67
2023-05-02T10:20:08.567Z,23.81
2023-05-02T10:21:13.024Z,23.68
2023-05-02T10:22:19.591Z,23.61
2023-05-02T10:23:25.956Z,23.71
2023-05-02T10:24:32.224Z,23.76
2023-05-02T10:25:35.342Z,23.84
2023-05-02T10:26:39.271Z,23.82
2023-05-02T10:27:42.663Z,23.91
2023-05-02T10:28:46.248Z,24.00
2023-05-02T10:29:51.773Z,24.05
2023-05-02T10:30:55.212Z,24.12
2023-05-02T10:32:01.578Z,24.18
2023-05-02T10:33:05.161Z,24.13
2023-05-02T10:34:10.952Z,24.08
2023-05-02T10:35:13.832Z,23.96
2023-05-02T10:36:22.444Z,23.91
2023-05-02T10:37:26.818Z,24.06
2023-05-02T10:38:30.344Z,24.12
2023-05-02T10:39:33.720Z,24.14
2023-05-02T10:40:37.155Z,24.14
2023-05-02T10:41:42.160Z,24.10
2023-05-02T10:42:48.249Z,24.14
2023-05-02T10:43:51.749Z,24.16
2023-05-02T10:44:54.694Z,24.02
2023-05-02T10:45:57.644Z,23.92
2023-05-02T10:47:01.175Z,23.83
2023-05-02T10:48:34.362Z,23.90
2023-05-02T10:49:51.575Z,23.91
2023-05-02T10:51:02.149Z,23.81
2023-05-02T10:52:29.369Z,23.81
2023-05-02T10:53:37.303Z,24.01
2023-05-02T10:54:41.351Z,24.08
2023-05-02T10:55:44.847Z,24.05
2023-05-02T10:57:00.302Z,23.96
2023-05-02T10:58:05.822Z,23.88
2023-05-02T10:59:28.981Z,23.81
2023-05-02T11:00:34.143Z,23.74
2023-05-02T11:01:40.004Z,23.93
2023-05-02T11:02:43.026Z,24.03
2023-05-02T11:03:56.556Z,24.12
2023-05-02T11:05:03.431Z,24.30
2023-05-02T11:06:07.881Z,24.21
2023-05-02T11:07:13.599Z,24.04
2023-05-02T11:08:17.151Z,24.04
2023-05-02T11:09:23.728Z,24.21
2023-05-02T11:10:27.653Z,24.20
2023-05-02T11:11:43.881Z,23.87
2023-05-02T11:12:54.047Z,23.83
2023-05-02T11:13:56.931Z,23.74
2023-05-02T11:15:00.425Z,23.66
2023-05-02T11:16:04.335Z,23.69
2023-05-02T11:17:08.997Z,23.63
2023-05-02T11:18:13.414Z,23.59
2023-05-02T11:19:16.775Z,23.63
2023-05-02T11:20:20.808Z,23.76
2023-05-02T11:21:33.040Z,23.83
2023-05-02T11:22:36.551Z,24.00
2023-05-02T11:23:40.680Z,24.12
2023-05-02T11:24:45.024Z,24.11
2023-05-02T11:25:50.296Z,24.22
2023-05-02T11:26:55.519Z,24.25
2023-05-02T11:27:59.207Z,24.29
2023-05-02T11:29:02.022Z,24.36
2023-05-02T11:30:06.930Z,24.43
2023-05-02T11:31:31.035Z,24.51
2023-05-02T11:32:46.425Z,24.61
2023-05-02T11:34:01.089Z,24.60
2023-05-02T11:35:05.105Z,24.63
2023-05-02T11:36:08.254Z,24.59
2023-05-02T11:37:16.045Z,24.68
2023-05-02T11:38:20.743Z,24.57
2023-05-02T11:39:23.880Z,24.55
2023-05-02T11:40:28.798Z,24.54
2023-05-02T11:41:44.368Z,24.63
2023-05-02T11:42:47.901Z,24.84
2023-05-02T11:44:03.825Z,24.71
2023-05-02T11:45:07.190Z,24.66
2023-05-02T11:46:10.159Z,24.71
2023-05-02T11:47:13.757Z,24.70
2023-05-02T11:48:19.716Z,24.91
2023-05-02T11:49:22.812Z,24.98
2023-05-02T11:50:27.914Z,25.00
2023-05-02T11:51:31.920Z,24.96
2023-05-02T11:52:42.562Z,24.98
2023-05-02T11:53:45.890Z,24.97
2023-05-02T11:54:49.851Z,24.89
2023-05-02T11:55:54.995Z,24.74
2023-05-02T11:57:02.120Z,24.78
2023-05-02T11:58:05.639Z,24.82
2023-05-02T11:59:08.550Z,24.86
2023-05-02T12:00:13.286Z,24.91
2023-05-02T12:01:17.687Z,24.91
2023-05-02T12:02:24.405Z,24.78
2023-05-02T12:03:32.371Z,24.68
2023-05-02T12:04:44.829Z,24.64
2023-05-02T12:05:47.655Z,24.48
2023-05-02T12:06:57.942Z,24.22
2023-05-02T12:08:02.233Z,24.20
2023-05-02T12:09:16.641Z,23.94
2023-05-02T12:10:19.566Z,23.88
2023-05-02T12:11:23.832Z,23.69
2023-05-02T12:12:26.798Z,23.52
2023-05-02T12:13:30.908Z,23.50
2023-05-02T12:14:36.244Z,23.55
2023-05-02T12:15:39.396Z,23.59
2023-05-02T12:16:42.736Z,23.67
2023-05-02T12:17:52.828Z,23.85
2023-05-02T12:18:58.360Z,23.97
2023-05-02T12:20:04.293Z,24.25
2023-05-02T12:21:07.915Z,24.56
2023-05-02T12:22:11.601Z,24.60
2023-05-02T12:23:14.820Z,24.47
2023-05-02T12:24:18.248Z,24.30
2023-05-02T12:25:22.466Z,24.37
2023-05-02T12:26:31.364Z,24.53
2023-05-02T12:27:35.468Z,24.73
2023-05-02T12:28:52.568Z,24.75
2023-05-02T12:29:57.864Z,24.82
2023-05-02T12:31:11.594Z,24.66
2023-05-02T12:32:16.898Z,24.52
2023-05-02T12:33:20.089Z,24.42
2023-05-02T12:34:36.879Z,24.55
2023-05-02T12:35:39.928Z,24.58
2023-05-02T12:36:45.718Z,24.58
2023-05-02T12:37:48.685Z,24.36
2023-05-02T12:38:57.944Z,24.33
2023-05-02T12:40:01.154Z,24.33
2023-05-02T12:41:04.263Z,24.22
2023-05-02T12:42:14.123Z,24.02
2023-05-02T12:43:17.075Z,23.98
2023-05-02T12:44:37.343Z,24.04
2023-05-02T12:45:40.173Z,24.08
2023-05-02T12:47:00.939Z,24.25
2023-05-02T12:48:27.694Z,24.32
2023-05-02T12:49:30.975Z,24.46
2023-05-02T12:50:38.854Z,24.48
2023-05-02T12:51:42.393Z,24.57
2023-05-02T12:52:51.472Z,24.64
2023-05-02T12:53:54.823Z,24.59
2023-05-02T12:55:22.037Z,24.55
2023-05-02T12:56:27.930Z,24.46
2023-05-02T12:57:31.067Z,24.61
2023-05-02T12:58:48.105Z,24.55
2023-05-02T12:59:54.522Z,24.48
2023-05-02T13:00:57.676Z,24.55
2023-05-02T13:02:01.166Z,24.44
2023-05-02T13:03:04.669Z,24.30
2023-05-02T13:04:07.942Z,24.17
2023-05-02T13:05:18.673Z,24.05
2023-05-02T13:06:21.533Z,24.03
2023-05-02T13:07:24.557Z,23.89
2023-05-02T13:08:27.485Z,23.91
2023-05-02T13:09:30.534Z,23.89
2023-05-02T13:10:33.635Z,23.74
2023-05-02T13:11:36.977Z,23.57
2023-05-02T13:12:40.435Z,23.56
2023-05-02T13:13:43.401Z,23.62
2023-05-02T13:14:46.486Z,23.44
2023-05-02T13:15:49.397Z,23.35
2023-05-02T13:16:53.832Z,23.25
2023-05-02T13:17:57.356Z,23.30
2023-05-02T13:19:00.866Z,23.39
2023-05-02T13:20:04.713Z,23.32
2023-05-02T13:21:07.798Z,23.21
2023-05-02T13:22:11.760Z,23.28
2023-05-02T13:23:17.186Z,23.20
2023-05-02T13:24:20.118Z,23.16
2023-05-02T13:25:23.284Z,23.15
2023-05-02T13:26:26.237Z,23.14
2023-05-02T13:27:29.350Z,23.26
2023-05-02T13:28:33.558Z,23.34
2023-05-02T13:29:39.093Z,23.31
2023-05-02T13:30:42.285Z,23.13
2023-05-02T13:31:45.333Z,23.09
2023-05-02T13:32:48.413Z,22.97
2023-05-02T13:33:51.530Z,22.84
2023-05-02T13:34:54.506Z,22.84
2023-05-02T13:35:57.288Z,23.04
2023-05-02T13:37:00.203Z,23.00
2023-05-02T13:38:03.872Z,22.91
2023-05-02T13:39:06.851Z,22.80
2023-05-02T13:40:10.292Z,22.68
2023-05-02T13:41:13.454Z,22.60
2023-05-02T13:42:16.522Z,22.55
2023-05-02T13:43:19.462Z,22.59
2023-05-02T13:44:22.623Z,22.66
2023-05-02T13:45:28.484Z,22.61
2023-05-02T13:46:36.777Z,22.63
2023-05-02T13:47:40.936Z,22.57
2023-05-02T13:48:44.564Z,22.59
2023-05-02T13:49:47.436Z,22.53
2023-05-02T13:50:51.087Z,22.48
2023-05-02T13:51:54.328Z,22.53
2023-05-02T13:52:57.422Z,22.65
2023-05-02T13:54:01.376Z,22.55
2023-05-02T13:55:05.132Z,22.48
2023-05-02T13:56:08.358Z,22.42
2023-05-02T13:57:12.252Z,22.49
2023-05-02T13:58:15.231Z,22.54
2023-05-02T13:59:18.135Z,22.46
2023-05-02T14:00:21.430Z,22.63
2023-05-02T14:01:26.919Z,22.63
2023-05-02T14:02:30.212Z,22.48
2023-05-02T14:03:33.174Z,22.52
2023-05-02T14:04:36.230Z,22.52
2023-05-02T14:05:43.903Z,22.49
2023-05-02T14:06:47.155Z,22.39
2023-05-02T14:07:50.205Z,22.25